createdAt,value
2023-05-06T00:01:34.447Z,101088.23
2023-05-06T00:04:05.420Z,101088.84
2023-05-06T00:06:36.299Z,101086.70
2023-05-06T00:09:07.131Z,101077.06
2023-05-06T00:11:37.885Z,101078.35
2023-05-06T00:14:09.018Z,101076.08
2023-05-06T00:16:39.830Z,101073.44
2023-05-06T00:19:10.669Z,101075.23
2023-05-06T00:21:42.524Z,101075.48
2023-05-06T00:24:13.237Z,101079.37
2023-05-06T00:26:43.944Z,101077.59
2023-05-06T00:29:14.653Z,101079.22
2023-05-06T00:31:46.151Z,101079.63
2023-05-06T00:34:17.083Z,101078.02
2023-05-06T00:36:47.814Z,101073.34
2023-05-06T00:39:18.649Z,101080.44
2023-05-06T00:41:49.355Z,101074.92
2023-05-06T00:44:20.011Z,101079.32
2023-05-06T00:46:50.705Z,101079.95
2023-05-06T00:49:22.388Z,101080.27
2023-05-06T00:51:53.572Z,101080.58
2023-05-06T00:54:25.525Z,101083.95
2023-05-06T00:56:56.747Z,101080.33
2023-05-06T00:59:27.539Z,101082.48
2023-05-06T01:01:58.295Z,101074.58
2023-05-06T01:04:29.968Z,101079.78
2023-05-06T01:07:10.060Z,101077.48
2023-05-06T01:09:52.157Z,101083.03
2023-05-06T01:12:30.412Z,101090.64
2023-05-06T01:15:09.798Z,101084.23
2023-05-06T01:17:44.324Z,101089.07
2023-05-06T01:20:16.038Z,101091.89
2023-05-06T01:22:50.466Z,101093.73
2023-05-06T01:25:25.352Z,101096.45
2023-05-06T01:27:57.416Z,101100.15
2023-05-06T01:30:34.327Z,101103.73
2023-05-06T01:33:10.779Z,101105.89
2023-05-06T01:35:55.119Z,101109.73
2023-05-06T01:38:36.828Z,101111.58
2023-05-06T01:41:09.453Z,101113.75
2023-05-06T01:43:45.095Z,101112.85
2023-05-06T01:46:21.380Z,101115.02
2023-05-06T01:48:56.335Z,101110.92
2023-05-06T01:51:27.973Z,101110.90
2023-05-06T01:53:58.799Z,101106.94
2023-05-06T01:56:30.461Z,101108.22
2023-05-06T01:59:01.421Z,101102.52
2023-05-06T02:01:32.506Z,101101.90
2023-05-06T02:04:04.245Z,101105.71
2023-05-06T02:06:38.546Z,101105.23
2023-05-06T02:09:10.624Z,101104.07
2023-05-06T02:11:46.388Z,101111.45
2023-05-06T02:14:17.586Z,101102.67
2023-05-06T02:16:48.684Z,101098.04
2023-05-06T02:19:19.505Z,101098.45
2023-05-06T02:21:50.176Z,101100.92
2023-05-06T02:24:22.299Z,101101.88
2023-05-06T02:26:53.085Z,101097.44
2023-05-06T02:29:23.870Z,101096.23
2023-05-06T02:31:54.730Z,101094.83
2023-05-06T02:34:26.490Z,101095.66
2023-05-06T02:36:57.607Z,101091.86
2023-05-06T02:39:28.301Z,101092.16
2023-05-06T02:41:58.962Z,101081.74
2023-05-06T02:44:29.692Z,101081.90
2023-05-06T02:47:02.565Z,101073.89
2023-05-06T02:49:33.249Z,101080.50
2023-05-06T02:52:03.926Z,101074.96
2023-05-06T02:54:34.725Z,101073.39
2023-05-06T02:57:05.478Z,101067.58
2023-05-06T02:59:38.350Z,101065.33
2023-05-06T03:02:09.254Z,101061.04
2023-05-06T03:04:40.382Z,101071.23
2023-05-06T03:07:11.834Z,101069.73
2023-05-06T03:09:43.128Z,101075.86
2023-05-06T03:12:14.552Z,101078.13
2023-05-06T03:14:45.478Z,101084.98
2023-05-06T03:17:16.528Z,101085.35
2023-05-06T03:19:48.056Z,101086.10
2023-05-06T03:22:18.968Z,101087.54
2023-05-06T03:24:49.794Z,101089.52
2023-05-06T03:27:21.361Z,101089.66
2023-05-06T03:29:54.379Z,101092.54
2023-05-06T03:32:29.388Z,101097.20
2023-05-06T03:35:00.743Z,101094.23
2023-05-06T03:37:32.877Z,101098.74
2023-05-06T03:40:05.352Z,101099.61
2023-05-06T03:42:37.101Z,101094.41
2023-05-06T03:45:09.944Z,101095.48
2023-05-06T03:47:41.199Z,101104.36
2023-05-06T03:50:13.395Z,101105.92
2023-05-06T03:52:44.480Z,101101.88
2023-05-06T03:55:15.277Z,101107.33
2023-05-06T03:57:46.162Z,101103.77
2023-05-06T04:00:18.590Z,101104.10
2023-05-06T04:02:50.648Z,101104.79
2023-05-06T04:05:26.330Z,101095.27
2023-05-06T04:07:57.169Z,101099.41
2023-05-06T04:10:27.973Z,101099.92
2023-05-06T04:13:01.229Z,101100.08
2023-05-06T04:15:35.435Z,101096.68
2023-05-06T04:18:08.646Z,101092.80
2023-05-06T04:20:40.315Z,101093.21
2023-05-06T04:23:11.183Z,101088.17
2023-05-06T04:25:44.359Z,101088.02
2023-05-06T04:28:16.546Z,101085.98
2023-05-06T04:30:49.567Z,101089.27
2023-05-06T04:33:20.953Z,101089.79
2023-05-06T04:35:55.005Z,101092.67
2023-05-06T04:38:30.719Z,101094.51
2023-05-06T04:41:01.876Z,101097.61
2023-05-06T04:43:33.298Z,101098.36
2023-05-06T04:46:10.573Z,101096.70
2023-05-06T04:48:42.532Z,101094.73
2023-05-06T04:51:14.155Z,101092.57
2023-05-06T04:53:45.363Z,101091.10
2023-05-06T04:56:16.346Z,101090.64
2023-05-06T04:58:47.077Z,101086.26
2023-05-06T05:01:19.353Z,101090.05
2023-05-06T05:03:50.541Z,101083.48
2023-05-06T05:06:22.777Z,101085.21
2023-05-06T05:08:55.190Z,101085.28
2023-05-06T05:11:27.338Z,101088.54
2023-05-06T05:14:01.814Z,101081.04
2023-05-06T05:16:34.114Z,101083.30
2023-05-06T05:19:08.935Z,101078.43
2023-05-06T05:21:40.254Z,101080.38
2023-05-06T05:24:11.988Z,101082.84
2023-05-06T05:26:42.694Z,101079.66
2023-05-06T05:29:14.222Z,101080.70
2023-05-06T05:31:45.601Z,101075.81
2023-05-06T05:34:16.668Z,101075.20
2023-05-06T05:36:48.221Z,101079.20
2023-05-06T05:39:19.076Z,101076.38
2023-05-06T05:41:50.903Z,101071.45
2023-05-06T05:44:21.732Z,101070.45
2023-05-06T05:46:53.734Z,101069.46
2023-05-06T05:49:24.695Z,101064.39
2023-05-06T05:51:56.499Z,101062.54
2023-05-06T05:54:27.335Z,101062.76
2023-05-06T05:56:59.025Z,101065.52
2023-05-06T05:59:31.690Z,101063.54
2023-05-06T06:02:05.223Z,101058.85
2023-05-06T06:04:36.507Z,101055.33
2023-05-06T06:07:07.846Z,101057.60
2023-05-06T06:09:41.744Z,101056.14
2023-05-06T06:12:12.562Z,101055.34
2023-05-06T06:14:47.949Z,101053.36
2023-05-06T06:17:20.392Z,101055.46
2023-05-06T06:19:57.254Z,101054.02
2023-05-06T06:22:28.180Z,101051.59
2023-05-06T06:24:59.567Z,101058.19
2023-05-06T06:27:30.319Z,101060.84
2023-05-06T06:30:01.326Z,101059.92
2023-05-06T06:32:32.530Z,101062.10
2023-05-06T06:35:03.410Z,101061.70
2023-05-06T06:37:34.231Z,101060.78
2023-05-06T06:40:05.330Z,101056.78
2023-05-06T06:42:36.132Z,101056.17
2023-05-06T06:45:14.485Z,101050.95
2023-05-06T06:47:45.320Z,101048.64
2023-05-06T06:50:16.316Z,101049.07
2023-05-06T06:52:47.079Z,101046.90
2023-05-06T06:55:17.781Z,101043.72
2023-05-06T06:57:48.869Z,101049.59
2023-05-06T07:00:19.976Z,101039.36
2023-05-06T07:02:50.760Z,101042.64
2023-05-06T07:05:21.449Z,101052.23
2023-05-06T07:07:52.155Z,101042.31
2023-05-06T07:10:23.013Z,101043.00
2023-05-06T07:12:54.229Z,101048.64
2023-05-06T07:15:25.876Z,101030.88
2023-05-06T07:18:00.655Z,101031.23
2023-05-06T07:20:32.163Z,101020.10
2023-05-06T07:26:12.897Z,101035.67
2023-05-06T07:28:44.128Z,101024.56
2023-05-06T07:31:17.403Z,101018.75
2023-05-06T07:33:58.504Z,101019.24
2023-05-06T07:36:40.514Z,101009.52
2023-05-06T07:39:11.918Z,101017.20
2023-05-06T07:42:29.972Z,101009.84
2023-05-06T07:45:02.316Z,101003.69
2023-05-06T07:47:34.363Z,101008.47
2023-05-06T07:50:07.248Z,100998.04
2023-05-06T07:52:38.395Z,100996.15
2023-05-06T07:55:11.549Z,101002.13
2023-05-06T08:15:13.271Z,101012.08
2023-05-06T08:18:33.383Z,101011.70
2023-05-06T08:21:07.296Z,101011.20
2023-05-06T08:23:38.697Z,101008.13
2023-05-06T08:30:31.105Z,101019.27
2023-05-06T08:39:23.833Z,101004.57
2023-05-06T08:42:30.927Z,101004.59
2023-05-06T08:45:09.414Z,100997.23
2023-05-06T08:47:40.900Z,100998.59
2023-05-06T08:50:22.329Z,101005.11
2023-05-06T08:52:55.825Z,101003.91
2023-05-06T08:55:27.725Z,101006.84
2023-05-06T08:57:59.235Z,101005.30
2023-05-06T09:00:32.955Z,100996.56
2023-05-06T09:03:19.689Z,100999.13
2023-05-06T09:05:50.838Z,101004.77
2023-05-06T09:08:21.684Z,101005.11
2023-05-06T09:10:59.841Z,101000.14
2023-05-06T09:13:32.689Z,101007.32
2023-05-06T09:16:06.756Z,101007.32
2023-05-06T09:18:48.863Z,101009.38
2023-05-06T09:21:20.108Z,101009.89
2023-05-06T09:23:59.295Z,101005.61
2023-05-06T09:26:32.939Z,100997.55
2023-05-06T09:29:05.070Z,100991.89
2023-05-06T09:31:43.341Z,100990.33
2023-05-06T09:34:40.103Z,100987.73
2023-05-06T09:37:14.130Z,100986.70
2023-05-06T09:39:44.873Z,100985.16
2023-05-06T09:42:17.777Z,100992.66
2023-05-06T09:44:48.751Z,100987.70
2023-05-06T09:47:20.134Z,100976.56
2023-05-06T09:49:51.000Z,100984.94
2023-05-06T09:52:22.136Z,100981.68
2023-05-06T09:54:56.999Z,100990.07
2023-05-06T10:01:49.304Z,100972.77
2023-05-06T10:04:25.602Z,100978.92
2023-05-06T10:07:00.518Z,100977.05
2023-05-06T10:09:33.401Z,100976.02
2023-05-06T10:12:05.689Z,100995.89
2023-05-06T10:14:36.818Z,100985.63
2023-05-06T10:17:10.900Z,100983.43
2023-05-06T10:19:45.081Z,100966.84
2023-05-06T10:22:28.579Z,100961.04
2023-05-06T10:25:05.703Z,100975.61
2023-05-06T10:27:40.890Z,100962.96
2023-05-06T10:30:15.782Z,100956.65
2023-05-06T10:32:47.713Z,100945.54
2023-05-06T10:35:28.076Z,100945.56
2023-05-06T10:38:01.147Z,100943.52
2023-05-06T10:40:32.572Z,100946.27
2023-05-06T10:43:23.725Z,100943.02
2023-05-06T10:46:06.780Z,100937.05
2023-05-06T10:48:38.746Z,100943.07
2023-05-06T10:51:27.227Z,100937.09
2023-05-06T10:54:08.946Z,100932.82
2023-05-06T10:57:02.759Z,100936.23
2023-05-06T10:59:33.713Z,100939.00
2023-05-06T11:02:18.820Z,100926.86
2023-05-06T11:05:01.289Z,100927.54
2023-05-06T11:07:33.031Z,100925.32
2023-05-06T11:10:06.859Z,100924.80
2023-05-06T11:12:52.752Z,100915.90
2023-05-06T11:15:43.891Z,100919.15
2023-05-06T11:18:45.125Z,100912.82
2023-05-06T11:21:40.961Z,100916.42
2023-05-06T11:24:18.673Z,100919.16
2023-05-06T11:26:50.988Z,100915.23
2023-05-06T11:29:24.637Z,100920.02
2023-05-06T11:31:55.981Z,100917.29
2023-05-06T11:34:29.112Z,100935.25
2023-05-06T11:37:07.240Z,100911.64
2023-05-06T11:39:49.134Z,100917.96
2023-05-06T11:42:27.546Z,100920.37
2023-05-06T11:45:02.397Z,100922.41
2023-05-06T11:47:36.258Z,100923.61
2023-05-06T11:54:12.163Z,100926.17
2023-05-06T11:56:52.093Z,100926.17
2023-05-06T11:59:33.159Z,100927.54
2023-05-06T12:02:06.373Z,100925.48
2023-05-06T12:04:45.373Z,100924.48
2023-05-06T12:07:18.952Z,100924.48
2023-05-06T12:09:52.243Z,100924.31
2023-05-06T12:12:25.255Z,100932.17
2023-05-06T12:15:32.060Z,100925.85
2023-05-06T12:29:08.665Z,100934.48
2023-05-06T12:47:28.163Z,100930.89
2023-05-06T12:50:09.199Z,100931.44
2023-05-06T12:52:48.067Z,100933.49
2023-05-06T12:55:23.535Z,100929.59
2023-05-06T12:57:57.876Z,100929.94
2023-05-06T13:00:30.164Z,100923.13
2023-05-06T13:03:05.550Z,100922.45
2023-05-06T13:05:50.595Z,100922.98
2023-05-06T13:12:55.669Z,100914.27
2023-05-06T13:15:27.145Z,100915.11
2023-05-06T13:17:58.327Z,100914.77
2023-05-06T13:21:17.991Z,100913.89
2023-05-06T13:23:49.435Z,100913.88
2023-05-06T13:26:20.921Z,100911.48
2023-05-06T13:28:52.481Z,100914.38
2023-05-06T13:31:28.160Z,100913.86
2023-05-06T13:33:59.075Z,100908.22
2023-05-06T13:36:32.665Z,100904.10
2023-05-06T13:39:04.265Z,100903.08
2023-05-06T13:41:35.316Z,100902.89
2023-05-06T13:44:06.535Z,100902.18
2023-05-06T13:46:37.485Z,100899.27
2023-05-06T13:49:16.372Z,100899.58
2023-05-06T13:51:48.939Z,100892.40
2023-05-06T13:54:19.914Z,100889.84
2023-05-06T13:56:51.092Z,100883.86
2023-05-06T13:59:22.362Z,100876.16
2023-05-06T14:01:57.438Z,100871.72
2023-05-06T14:04:28.478Z,100862.83
2023-05-06T14:06:59.563Z,100853.45
2023-05-06T14:09:30.420Z,100851.89
2023-05-06T14:12:01.589Z,100849.83
2023-05-06T14:14:33.069Z,100846.55
2023-05-06T14:17:04.227Z,100841.05
2023-05-06T14:19:35.606Z,100836.27
2023-05-06T14:22:06.579Z,100828.90
2023-05-06T14:24:38.205Z,100823.09
2023-05-06T14:27:09.982Z,100821.00
2023-05-06T14:29:43.281Z,100820.79
2023-05-06T14:32:14.413Z,100815.13
2023-05-06T14:34:45.694Z,100816.11
2023-05-06T14:37:16.951Z,100806.55
2023-05-06T14:39:47.888Z,100810.10
2023-05-06T14:42:20.115Z,100812.27
2023-05-06T14:44:51.060Z,100814.27
2023-05-06T14:47:24.373Z,100814.94
2023-05-06T14:49:59.895Z,100814.92
2023-05-06T14:52:30.990Z,100815.59
2023-05-06T14:55:02.098Z,100818.93
2023-05-06T14:57:36.078Z,100823.51
2023-05-06T15:00:13.041Z,100817.71
2023-05-06T15:02:44.190Z,100818.73
2023-05-06T15:05:15.679Z,100820.09
2023-05-06T15:07:46.671Z,100816.98
2023-05-06T15:10:17.789Z,100821.03
2023-05-06T15:12:48.914Z,100820.98
2023-05-06T15:15:22.984Z,100827.27
2023-05-06T15:17:55.259Z,100831.33
2023-05-06T15:20:26.115Z,100837.31
2023-05-06T15:22:56.862Z,100841.73
2023-05-06T15:25:35.627Z,100847.86
2023-05-06T15:28:08.088Z,100846.13
2023-05-06T15:30:40.686Z,100849.88
2023-05-06T15:33:13.097Z,100846.80
2023-05-06T15:35:44.433Z,100849.33
2023-05-06T15:38:15.513Z,100848.32
2023-05-06T15:40:52.314Z,100853.27
2023-05-06T15:43:26.464Z,100851.38
2023-05-06T15:46:07.642Z,100854.77
2023-05-06T15:48:38.720Z,100860.70
2023-05-06T15:51:09.812Z,100859.66
2023-05-06T15:53:44.057Z,100864.09
2023-05-06T15:56:18.573Z,100860.62
2023-05-06T15:58:52.655Z,100869.64
2023-05-06T16:01:44.996Z,100870.99
2023-05-06T16:04:15.329Z,100871.15
2023-05-06T16:06:46.314Z,100877.77
2023-05-06T16:09:17.405Z,100879.79
2023-05-06T16:11:49.192Z,100878.92
2023-05-06T16:14:20.768Z,100882.48
2023-05-06T16:16:52.038Z,100880.27
2023-05-06T16:19:23.337Z,100886.21
2023-05-06T16:21:54.554Z,100885.70
2023-05-06T16:24:26.438Z,100888.95
2023-05-06T16:27:01.208Z,100896.27
2023-05-06T16:29:32.109Z,100905.79
2023-05-06T16:32:04.180Z,100907.84
2023-05-06T16:34:35.375Z,100904.77
2023-05-06T16:37:07.668Z,100908.35
2023-05-06T16:39:38.825Z,100910.21
2023-05-06T16:42:10.017Z,100909.89
2023-05-06T16:44:41.164Z,100912.44
2023-05-06T16:47:16.127Z,100910.06
2023-05-06T16:49:46.029Z,100914.70
2023-05-06T16:52:18.405Z,100915.21
2023-05-06T16:54:51.292Z,100913.50
2023-05-06T16:57:22.416Z,100917.77
2023-05-06T16:59:53.460Z,100916.57
2023-05-06T17:02:24.472Z,100913.14
2023-05-06T17:04:55.650Z,100908.32
2023-05-06T17:07:29.240Z,100908.82
2023-05-06T17:10:00.692Z,100909.14
2023-05-06T17:12:32.906Z,100912.00
2023-05-06T17:15:06.102Z,100910.06
2023-05-06T17:21:37.316Z,100905.19
2023-05-06T17:24:08.521Z,100908.59
2023-05-06T17:26:40.922Z,100910.11
2023-05-06T17:29:11.949Z,100903.29
2023-05-06T17:34:08.808Z,100901.92
2023-05-06T17:36:42.623Z,100906.45
2023-05-06T17:39:18.498Z,100909.85
2023-05-06T17:41:50.570Z,100906.73
2023-05-06T17:44:21.761Z,100912.02
2023-05-06T17:46:53.238Z,100913.02
2023-05-06T17:49:36.853Z,100916.55
2023-05-06T17:52:07.941Z,100921.46
2023-05-06T17:54:40.537Z,100921.52
2023-05-06T17:57:11.857Z,100924.10
2023-05-06T17:59:43.196Z,100926.81
2023-05-06T18:02:18.936Z,100927.45
2023-05-06T18:04:51.798Z,100931.90
2023-05-06T18:07:22.588Z,100932.05
2023-05-06T18:09:53.592Z,100935.21
2023-05-06T18:12:28.728Z,100934.48
2023-05-06T18:15:00.746Z,100933.63
2023-05-06T18:17:31.787Z,100936.38
2023-05-06T18:20:03.187Z,100939.58
2023-05-06T18:22:45.058Z,100938.20
2023-05-06T18:25:19.204Z,100936.48
2023-05-06T18:27:54.496Z,100941.27
2023-05-06T18:30:33.705Z,100945.38
2023-05-06T18:33:05.768Z,100950.50
2023-05-06T18:35:48.708Z,100949.99
2023-05-06T18:38:24.898Z,100948.95
2023-05-06T18:41:00.550Z,100948.41
2023-05-06T18:43:32.570Z,100946.02
2023-05-06T18:46:05.666Z,100947.40
2023-05-06T18:48:37.146Z,100951.48
2023-05-06T18:51:17.221Z,100949.73
2023-05-06T18:53:49.235Z,100945.27
2023-05-06T18:56:21.500Z,100945.08
2023-05-06T18:59:16.951Z,100942.64
2023-05-06T19:01:48.608Z,100943.80
2023-05-06T19:04:20.364Z,100942.10
2023-05-06T19:06:57.730Z,100941.78
2023-05-06T19:09:28.908Z,100936.64
2023-05-06T19:12:31.085Z,100936.61
2023-05-06T19:15:02.974Z,100941.02
2023-05-06T19:17:57.941Z,100936.74
2023-05-06T19:24:31.153Z,100936.50
2023-05-06T19:27:03.113Z,100939.21
2023-05-06T19:29:33.981Z,100935.97
2023-05-06T19:32:08.039Z,100932.56
2023-05-06T19:34:41.253Z,100933.44
2023-05-06T19:37:21.473Z,100926.10
2023-05-06T19:39:56.798Z,100925.92
2023-05-06T19:42:30.484Z,100925.23
2023-05-06T19:45:09.101Z,100928.63
2023-05-06T19:47:48.886Z,100925.34
2023-05-06T19:50:20.568Z,100929.08
2023-05-06T19:56:32.777Z,100929.41
2023-05-06T19:59:06.800Z,100930.42
2023-05-06T20:06:19.766Z,100933.46
2023-05-06T20:21:19.230Z,100944.39
2023-05-06T20:25:04.232Z,100945.48
2023-05-06T20:27:35.258Z,100944.45
2023-05-06T20:30:08.073Z,100943.77
2023-05-06T20:32:40.420Z,100942.89
2023-05-06T20:35:16.851Z,100944.40
2023-05-06T20:37:48.210Z,100946.54
2023-05-06T20:40:19.274Z,100945.66
2023-05-06T20:42:52.298Z,100945.83
2023-05-06T20:45:24.065Z,100942.43
2023-05-06T20:47:55.234Z,100940.73
2023-05-06T20:50:26.121Z,100940.89
2023-05-06T20:53:02.288Z,100941.52
2023-05-06T20:56:02.905Z,100938.56
2023-05-06T20:58:36.034Z,100941.95
2023-05-06T21:01:54.793Z,100940.05
2023-05-06T21:04:30.418Z,100934.20
2023-05-06T21:07:17.979Z,100942.02
2023-05-06T21:09:49.012Z,100942.17
2023-05-06T21:12:23.122Z,100941.47
2023-05-06T21:14:54.338Z,100940.13
2023-05-06T21:17:25.527Z,100940.65
2023-05-06T21:19:57.133Z,100944.08
2023-05-06T21:22:28.493Z,100943.93
2023-05-06T21:25:00.933Z,100948.00
2023-05-06T21:27:32.046Z,100948.79
2023-05-06T21:30:03.300Z,100947.94
2023-05-06T21:32:34.228Z,100949.66
2023-05-06T21:35:06.123Z,100945.39
2023-05-06T21:37:37.326Z,100943.69
2023-05-06T21:40:12.304Z,100939.27
2023-05-06T21:42:43.529Z,100944.20
2023-05-06T21:45:16.347Z,100938.73
2023-05-06T21:47:48.847Z,100945.84
2023-05-06T21:50:20.173Z,100947.52
2023-05-06T21:52:51.006Z,100946.36
2023-05-06T21:55:22.936Z,100944.64
2023-05-06T21:57:53.889Z,100944.98
2023-05-06T22:00:24.887Z,100942.89
2023-05-06T22:02:55.974Z,100948.05
2023-05-06T22:05:26.997Z,100945.73
2023-05-06T22:07:59.206Z,100944.95
2023-05-06T22:10:30.997Z,100945.05
2023-05-06T22:13:02.008Z,100940.06
2023-05-06T22:15:33.547Z,100945.61
2023-05-06T22:18:04.699Z,100947.06
2023-05-06T22:20:36.580Z,100943.24
2023-05-06T22:23:07.702Z,100951.83
2023-05-06T22:25:43.084Z,100950.88
2023-05-06T22:28:15.278Z,100941.30
2023-05-06T22:30:46.381Z,100949.29
2023-05-06T22:33:17.452Z,100945.84
2023-05-06T22:35:48.613Z,100945.98
2023-05-06T22:38:20.909Z,100949.49
2023-05-06T22:40:53.482Z,100948.63
2023-05-06T22:43:24.529Z,100950.36
2023-05-06T22:45:55.430Z,100949.02
2023-05-06T22:48:26.126Z,100946.30
2023-05-06T22:50:57.381Z,100946.77
2023-05-06T22:53:28.209Z,100944.88
2023-05-06T22:55:59.163Z,100943.98
2023-05-06T22:58:29.898Z,100944.46
2023-05-06T23:01:01.471Z,100946.34
2023-05-06T23:03:32.389Z,100946.86
2023-05-06T23:06:04.560Z,100952.98
2023-05-06T23:08:37.332Z,100949.55
2023-05-06T23:11:08.474Z,100953.65
2023-05-06T23:13:39.690Z,100952.52
2023-05-06T23:16:10.539Z,100951.10
2023-05-06T23:18:41.381Z,100954.36
2023-05-06T23:21:12.771Z,100953.55
2023-05-06T23:23:44.130Z,100957.36
2023-05-06T23:26:14.880Z,100957.89
2023-05-06T23:28:49.691Z,100958.92
2023-05-06T23:31:20.482Z,100958.37
2023-05-06T23:33:51.211Z,100959.19
2023-05-06T23:36:22.445Z,100961.90
2023-05-06T23:38:53.193Z,100967.51
2023-05-06T23:41:24.525Z,100970.23
2023-05-06T23:43:55.338Z,100966.65
2023-05-06T23:46:26.224Z,100967.95
2023-05-06T23:48:57.048Z,100968.48
2023-05-06T23:51:27.773Z,100969.19
2023-05-06T23:53:59.234Z,100967.89
2023-05-06T23:56:30.259Z,100967.30
2023-05-06T23:59:01.116Z,100967.20
